sensor_id;sensor_type;location;lat;lon;timestamp;temperature;humidity
67586;SHT31;55785;47.946;20.540;2022-11-03T00:01:24;8.27;88.66
67586;SHT31;55785;47.946;20.540;2022-11-03T00:03:49;8.25;88.79
67586;SHT31;55785;47.946;20.540;2022-11-03T00:06:15;8.23;88.51
67586;SHT31;55785;47.946;20.540;2022-11-03T00:08:41;8.33;88.53
67586;SHT31;55785;47.946;20.540;2022-11-03T00:11:12;8.27;88.37
67586;SHT31;55785;47.946;20.540;2022-11-03T00:13:39;8.22;88.05
67586;SHT31;55785;47.946;20.540;2022-11-03T00:16:06;8.22;87.76
67586;SHT31;55785;47.946;20.540;2022-11-03T00:18:32;7.77;86.66
67586;SHT31;55785;47.946;20.540;2022-11-03T00:21:00;7.85;86.65
67586;SHT31;55785;47.946;20.540;2022-11-03T00:23:27;7.64;86.92
67586;SHT31;55785;47.946;20.540;2022-11-03T00:25:53;7.68;87.04
67586;SHT31;55785;47.946;20.540;2022-11-03T00:28:18;7.59;87.41
67586;SHT31;55785;47.946;20.540;2022-11-03T00:30:43;7.40;86.32
67586;SHT31;55785;47.946;20.540;2022-11-03T00:33:09;6.93;86.94
67586;SHT31;55785;47.946;20.540;2022-11-03T00:35:34;7.27;90.57
67586;SHT31;55785;47.946;20.540;2022-11-03T00:37:59;7.37;90.90
67586;SHT31;55785;47.946;20.540;2022-11-03T00:40:24;7.71;92.07
67586;SHT31;55785;47.946;20.540;2022-11-03T00:42:50;7.96;92.24
67586;SHT31;55785;47.946;20.540;2022-11-03T00:45:15;7.98;91.84
67586;SHT31;55785;47.946;20.540;2022-11-03T00:47:40;8.02;91.62
67586;SHT31;55785;47.946;20.540;2022-11-03T00:50:06;8.12;91.34
67586;SHT31;55785;47.946;20.540;2022-11-03T00:52:31;7.17;87.84
67586;SHT31;55785;47.946;20.540;2022-11-03T00:54:57;7.14;88.54
67586;SHT31;55785;47.946;20.540;2022-11-03T00:57:22;7.06;88.26
67586;SHT31;55785;47.946;20.540;2022-11-03T00:59:47;7.00;88.13
67586;SHT31;55785;47.946;20.540;2022-11-03T01:02:12;6.95;88.43
67586;SHT31;55785;47.946;20.540;2022-11-03T01:04:38;6.99;88.36
67586;SHT31;55785;47.946;20.540;2022-11-03T01:07:04;6.99;88.27
67586;SHT31;55785;47.946;20.540;2022-11-03T01:09:36;7.00;88.04
67586;SHT31;55785;47.946;20.540;2022-11-03T01:12:08;7.00;87.81
67586;SHT31;55785;47.946;20.540;2022-11-03T01:14:43;6.83;87.68
67586;SHT31;55785;47.946;20.540;2022-11-03T01:17:11;6.73;87.85
67586;SHT31;55785;47.946;20.540;2022-11-03T01:19:37;6.89;88.53
67586;SHT31;55785;47.946;20.540;2022-11-03T01:22:03;6.82;88.04
67586;SHT31;55785;47.946;20.540;2022-11-03T01:24:28;6.64;86.98
67586;SHT31;55785;47.946;20.540;2022-11-03T01:26:53;6.28;86.59
67586;SHT31;55785;47.946;20.540;2022-11-03T01:29:19;6.44;87.25
67586;SHT31;55785;47.946;20.540;2022-11-03T01:31:44;6.34;86.97
67586;SHT31;55785;47.946;20.540;2022-11-03T01:34:14;6.25;86.90
67586;SHT31;55785;47.946;20.540;2022-11-03T01:36:39;6.25;87.17
67586;SHT31;55785;47.946;20.540;2022-11-03T01:39:05;6.22;87.31
67586;SHT31;55785;47.946;20.540;2022-11-03T01:41:30;6.21;87.19
67586;SHT31;55785;47.946;20.540;2022-11-03T01:54:35;6.17;87.85
67586;SHT31;55785;47.946;20.540;2022-11-03T01:57:04;6.11;87.96
67586;SHT31;55785;47.946;20.540;2022-11-03T01:59:34;6.16;87.77
67586;SHT31;55785;47.946;20.540;2022-11-03T02:02:00;6.10;87.67
67586;SHT31;55785;47.946;20.540;2022-11-03T02:04:28;5.90;86.76
67586;SHT31;55785;47.946;20.540;2022-11-03T02:07:11;5.89;86.93
67586;SHT31;55785;47.946;20.540;2022-11-03T02:09:39;5.69;87.03
67586;SHT31;55785;47.946;20.540;2022-11-03T02:12:06;5.73;87.30
67586;SHT31;55785;47.946;20.540;2022-11-03T02:14:34;5.65;87.41
67586;SHT31;55785;47.946;20.540;2022-11-03T02:17:02;5.56;88.08
67586;SHT31;55785;47.946;20.540;2022-11-03T02:19:39;5.69;88.33
67586;SHT31;55785;47.946;20.540;2022-11-03T02:27:38;5.21;87.43
67586;SHT31;55785;47.946;20.540;2022-11-03T02:30:03;5.18;88.26
67586;SHT31;55785;47.946;20.540;2022-11-03T02:35:12;5.42;88.68
67586;SHT31;55785;47.946;20.540;2022-11-03T02:37:46;5.56;89.62
67586;SHT31;55785;47.946;20.540;2022-11-03T02:40:17;5.56;88.53
67586;SHT31;55785;47.946;20.540;2022-11-03T02:42:47;5.49;88.50
67586;SHT31;55785;47.946;20.540;2022-11-03T02:45:18;5.59;89.16
67586;SHT31;55785;47.946;20.540;2022-11-03T02:47:45;5.90;90.04
67586;SHT31;55785;47.946;20.540;2022-11-03T02:50:11;6.07;90.33
67586;SHT31;55785;47.946;20.540;2022-11-03T02:57:35;6.03;90.22
67586;SHT31;55785;47.946;20.540;2022-11-03T03:00:05;6.17;90.06
67586;SHT31;55785;47.946;20.540;2022-11-03T03:03:04;6.44;90.75
67586;SHT31;55785;47.946;20.540;2022-11-03T03:05:29;6.76;92.27
67586;SHT31;55785;47.946;20.540;2022-11-03T03:08:01;6.95;91.42
67586;SHT31;55785;47.946;20.540;2022-11-03T03:10:54;7.20;91.68
67586;SHT31;55785;47.946;20.540;2022-11-03T03:13:22;7.28;91.56
67586;SHT31;55785;47.946;20.540;2022-11-03T03:20:56;7.78;91.58
67586;SHT31;55785;47.946;20.540;2022-11-03T03:23:25;8.00;91.83
67586;SHT31;55785;47.946;20.540;2022-11-03T03:25:59;8.02;91.52
67586;SHT31;55785;47.946;20.540;2022-11-03T03:28:32;8.25;91.70
67586;SHT31;55785;47.946;20.540;2022-11-03T03:31:00;8.27;91.40
67586;SHT31;55785;47.946;20.540;2022-11-03T03:33:28;8.34;91.11
67586;SHT31;55785;47.946;20.540;2022-11-03T03:35:55;8.41;90.94
67586;SHT31;55785;47.946;20.540;2022-11-03T03:38:25;8.51;91.18
67586;SHT31;55785;47.946;20.540;2022-11-03T03:40:54;8.54;90.90
67586;SHT31;55785;47.946;20.540;2022-11-03T03:43:21;8.54;90.82
67586;SHT31;55785;47.946;20.540;2022-11-03T03:45:49;8.58;90.91
67586;SHT31;55785;47.946;20.540;2022-11-03T03:48:16;8.60;90.73
67586;SHT31;55785;47.946;20.540;2022-11-03T03:50:42;8.64;90.69
67586;SHT31;55785;47.946;20.540;2022-11-03T03:53:11;8.65;90.33
67586;SHT31;55785;47.946;20.540;2022-11-03T03:55:42;8.63;90.28
67586;SHT31;55785;47.946;20.540;2022-11-03T03:58:11;8.79;90.07
67586;SHT31;55785;47.946;20.540;2022-11-03T04:00:36;8.78;90.15
67586;SHT31;55785;47.946;20.540;2022-11-03T04:03:02;8.78;90.02
67586;SHT31;55785;47.946;20.540;2022-11-03T04:05:27;8.85;89.92
67586;SHT31;55785;47.946;20.540;2022-11-03T04:07:52;8.65;89.29
67586;SHT31;55785;47.946;20.540;2022-11-03T04:10:20;8.69;89.08
67586;SHT31;55785;47.946;20.540;2022-11-03T04:12:46;8.65;89.08
67586;SHT31;55785;47.946;20.540;2022-11-03T04:15:12;8.72;88.64
67586;SHT31;55785;47.946;20.540;2022-11-03T04:17:42;8.57;88.22
67586;SHT31;55785;47.946;20.540;2022-11-03T04:20:11;8.61;88.63
67586;SHT31;55785;47.946;20.540;2022-11-03T04:22:37;8.48;88.55
67586;SHT31;55785;47.946;20.540;2022-11-03T04:25:02;8.60;88.87
67586;SHT31;55785;47.946;20.540;2022-11-03T04:27:33;8.61;88.90
67586;SHT31;55785;47.946;20.540;2022-11-03T04:32:26;8.65;89.16
67586;SHT31;55785;47.946;20.540;2022-11-03T04:34:52;8.60;89.02
67586;SHT31;55785;47.946;20.540;2022-11-03T04:37:18;8.63;88.80
67586;SHT31;55785;47.946;20.540;2022-11-03T04:39:43;8.63;88.58
67586;SHT31;55785;47.946;20.540;2022-11-03T04:42:17;8.53;88.75
67586;SHT31;55785;47.946;20.540;2022-11-03T04:44:43;8.60;88.61
67586;SHT31;55785;47.946;20.540;2022-11-03T04:47:11;8.54;88.07
67586;SHT31;55785;47.946;20.540;2022-11-03T04:49:36;8.36;88.14
67586;SHT31;55785;47.946;20.540;2022-11-03T04:52:02;8.34;87.99
67586;SHT31;55785;47.946;20.540;2022-11-03T04:54:27;8.33;87.58
67586;SHT31;55785;47.946;20.540;2022-11-03T04:56:53;8.26;87.68
67586;SHT31;55785;47.946;20.540;2022-11-03T04:59:18;8.19;87.47
67586;SHT31;55785;47.946;20.540;2022-11-03T05:01:44;8.12;87.20
67586;SHT31;55785;47.946;20.540;2022-11-03T05:04:12;7.99;86.99
67586;SHT31;55785;47.946;20.540;2022-11-03T05:06:39;8.00;87.24
67586;SHT31;55785;47.946;20.540;2022-11-03T05:09:15;7.90;87.13
67586;SHT31;55785;47.946;20.540;2022-11-03T05:11:44;7.92;86.87
67586;SHT31;55785;47.946;20.540;2022-11-03T05:14:18;7.81;86.98
67586;SHT31;55785;47.946;20.540;2022-11-03T05:16:45;7.74;86.86
67586;SHT31;55785;47.946;20.540;2022-11-03T05:19:17;7.30;86.46
67586;SHT31;55785;47.946;20.540;2022-11-03T05:21:43;7.34;86.48
67586;SHT31;55785;47.946;20.540;2022-11-03T05:24:12;7.37;86.73
67586;SHT31;55785;47.946;20.540;2022-11-03T05:26:37;7.41;86.92
67586;SHT31;55785;47.946;20.540;2022-11-03T05:29:10;7.35;86.99
67586;SHT31;55785;47.946;20.540;2022-11-03T05:31:39;7.43;86.91
67586;SHT31;55785;47.946;20.540;2022-11-03T05:36:44;7.26;86.78
67586;SHT31;55785;47.946;20.540;2022-11-03T05:39:48;7.26;86.70
67586;SHT31;55785;47.946;20.540;2022-11-03T05:44:49;7.28;86.49
67586;SHT31;55785;47.946;20.540;2022-11-03T05:47:32;7.17;86.11
67586;SHT31;55785;47.946;20.540;2022-11-03T05:50:14;6.96;86.12
67586;SHT31;55785;47.946;20.540;2022-11-03T05:52:43;6.61;86.01
67586;SHT31;55785;47.946;20.540;2022-11-03T05:55:21;6.67;86.00
67586;SHT31;55785;47.946;20.540;2022-11-03T05:57:49;6.53;86.30
67586;SHT31;55785;47.946;20.540;2022-11-03T06:00:26;6.61;86.27
67586;SHT31;55785;47.946;20.540;2022-11-03T06:02:52;6.53;86.62
67586;SHT31;55785;47.946;20.540;2022-11-03T06:05:21;6.56;86.81
67586;SHT31;55785;47.946;20.540;2022-11-03T06:07:47;6.56;87.26
67586;SHT31;55785;47.946;20.540;2022-11-03T06:10:24;6.52;87.32
67586;SHT31;55785;47.946;20.540;2022-11-03T06:12:50;6.56;87.08
67586;SHT31;55785;47.946;20.540;2022-11-03T06:15:26;6.48;87.04
67586;SHT31;55785;47.946;20.540;2022-11-03T06:17:52;6.59;86.90
67586;SHT31;55785;47.946;20.540;2022-11-03T06:20:20;6.62;86.78
67586;SHT31;55785;47.946;20.540;2022-11-03T06:22:46;6.53;86.85
67586;SHT31;55785;47.946;20.540;2022-11-03T06:27:43;6.61;86.55
67586;SHT31;55785;47.946;20.540;2022-11-03T06:30:39;6.51;86.72
67586;SHT31;55785;47.946;20.540;2022-11-03T06:33:27;6.42;87.13
67586;SHT31;55785;47.946;20.540;2022-11-03T06:36:02;6.46;87.54
67586;SHT31;55785;47.946;20.540;2022-11-03T06:38:30;6.56;87.69
67586;SHT31;55785;47.946;20.540;2022-11-03T06:40:58;6.59;87.72
67586;SHT31;55785;47.946;20.540;2022-11-03T06:43:36;6.52;87.78
67586;SHT31;55785;47.946;20.540;2022-11-03T06:46:12;6.62;87.71
67586;SHT31;55785;47.946;20.540;2022-11-03T06:48:38;6.73;87.90
67586;SHT31;55785;47.946;20.540;2022-11-03T06:51:14;6.79;88.75
67586;SHT31;55785;47.946;20.540;2022-11-03T06:53:40;6.95;89.62
67586;SHT31;55785;47.946;20.540;2022-11-03T06:56:11;7.11;89.60
67586;SHT31;55785;47.946;20.540;2022-11-03T06:58:39;7.06;89.24
67586;SHT31;55785;47.946;20.540;2022-11-03T07:01:15;7.03;88.77
67586;SHT31;55785;47.946;20.540;2022-11-03T07:03:43;7.24;89.19
67586;SHT31;55785;47.946;20.540;2022-11-03T07:08:45;7.51;89.73
67586;SHT31;55785;47.946;20.540;2022-11-03T07:13:47;7.81;90.44
67586;SHT31;55785;47.946;20.540;2022-11-03T07:16:36;8.17;91.12
67586;SHT31;55785;47.946;20.540;2022-11-03T07:19:11;8.27;90.76
67586;SHT31;55785;47.946;20.540;2022-11-03T07:21:53;8.37;90.48
67586;SHT31;55785;47.946;20.540;2022-11-03T07:24:42;8.76;91.38
67586;SHT31;55785;47.946;20.540;2022-11-03T07:27:31;8.95;90.03
67586;SHT31;55785;47.946;20.540;2022-11-03T07:30:15;9.16;89.89
67586;SHT31;55785;47.946;20.540;2022-11-03T07:32:42;9.39;90.71
67586;SHT31;55785;47.946;20.540;2022-11-03T07:37:51;10.12;90.57
67586;SHT31;55785;47.946;20.540;2022-11-03T07:40:24;10.31;89.80
67586;SHT31;55785;47.946;20.540;2022-11-03T07:42:50;10.48;89.50
67586;SHT31;55785;47.946;20.540;2022-11-03T07:48:33;10.79;88.71
67586;SHT31;55785;47.946;20.540;2022-11-03T07:51:00;11.06;88.96
67586;SHT31;55785;47.946;20.540;2022-11-03T07:53:41;11.14;86.91
67586;SHT31;55785;47.946;20.540;2022-11-03T07:56:24;11.22;87.13
67586;SHT31;55785;47.946;20.540;2022-11-03T07:58:53;11.29;86.52
67586;SHT31;55785;47.946;20.540;2022-11-03T08:03:52;11.54;84.53
67586;SHT31;55785;47.946;20.540;2022-11-03T08:06:18;11.70;83.99
67586;SHT31;55785;47.946;20.540;2022-11-03T08:08:44;11.82;83.42
67586;SHT31;55785;47.946;20.540;2022-11-03T08:11:09;11.83;83.78
67586;SHT31;55785;47.946;20.540;2022-11-03T08:13:34;11.87;83.48
67586;SHT31;55785;47.946;20.540;2022-11-03T08:16:00;11.96;82.96
67586;SHT31;55785;47.946;20.540;2022-11-03T08:18:26;12.00;82.36
67586;SHT31;55785;47.946;20.540;2022-11-03T08:20:51;11.98;82.65
67586;SHT31;55785;47.946;20.540;2022-11-03T08:23:16;12.07;82.46
67586;SHT31;55785;47.946;20.540;2022-11-03T08:25:42;12.12;81.79
67586;SHT31;55785;47.946;20.540;2022-11-03T08:28:07;12.16;81.73
67586;SHT31;55785;47.946;20.540;2022-11-03T08:30:33;12.23;81.13
67586;SHT31;55785;47.946;20.540;2022-11-03T08:33:01;12.24;81.10
67586;SHT31;55785;47.946;20.540;2022-11-03T08:35:26;12.28;82.08
67586;SHT31;55785;47.946;20.540;2022-11-03T08:37:52;12.31;81.48
67586;SHT31;55785;47.946;20.540;2022-11-03T08:40:17;12.35;80.74
67586;SHT31;55785;47.946;20.540;2022-11-03T08:42:43;12.42;80.81
67586;SHT31;55785;47.946;20.540;2022-11-03T08:45:09;12.52;79.95
67586;SHT31;55785;47.946;20.540;2022-11-03T08:47:34;12.44;80.03
67586;SHT31;55785;47.946;20.540;2022-11-03T08:50:00;12.51;81.27
67586;SHT31;55785;47.946;20.540;2022-11-03T08:52:25;12.54;80.11
67586;SHT31;55785;47.946;20.540;2022-11-03T08:54:51;12.58;79.47
67586;SHT31;55785;47.946;20.540;2022-11-03T08:57:16;12.69;80.71
67586;SHT31;55785;47.946;20.540;2022-11-03T08:59:41;12.69;79.76
67586;SHT31;55785;47.946;20.540;2022-11-03T09:02:06;12.78;82.02
67586;SHT31;55785;47.946;20.540;2022-11-03T09:04:32;12.85;79.52
67586;SHT31;55785;47.946;20.540;2022-11-03T09:06:57;12.75;78.96
67586;SHT31;55785;47.946;20.540;2022-11-03T09:09:22;12.79;78.32
67586;SHT31;55785;47.946;20.540;2022-11-03T09:11:48;12.79;78.68
67586;SHT31;55785;47.946;20.540;2022-11-03T09:14:13;12.88;79.49
67586;SHT31;55785;47.946;20.540;2022-11-03T09:16:38;12.92;78.98
67586;SHT31;55785;47.946;20.540;2022-11-03T09:19:04;12.93;78.97
67586;SHT31;55785;47.946;20.540;2022-11-03T09:21:29;12.97;78.30
67586;SHT31;55785;47.946;20.540;2022-11-03T09:23:54;13.03;78.37
67586;SHT31;55785;47.946;20.540;2022-11-03T09:26:19;13.12;77.48
67586;SHT31;55785;47.946;20.540;2022-11-03T09:28:45;13.07;76.48
67586;SHT31;55785;47.946;20.540;2022-11-03T09:31:10;13.06;75.99
67586;SHT31;55785;47.946;20.540;2022-11-03T09:33:35;13.17;77.51
67586;SHT31;55785;47.946;20.540;2022-11-03T09:36:01;13.23;79.58
67586;SHT31;55785;47.946;20.540;2022-11-03T09:38:26;13.31;78.70
67586;SHT31;55785;47.946;20.540;2022-11-03T09:40:52;13.36;76.90
67586;SHT31;55785;47.946;20.540;2022-11-03T09:43:17;13.27;77.50
67586;SHT31;55785;47.946;20.540;2022-11-03T09:45:43;13.22;77.92
67586;SHT31;55785;47.946;20.540;2022-11-03T09:48:11;13.04;75.86
67586;SHT31;55785;47.946;20.540;2022-11-03T09:50:37;13.23;75.44
67586;SHT31;55785;47.946;20.540;2022-11-03T09:53:04;13.31;77.64
67586;SHT31;55785;47.946;20.540;2022-11-03T09:55:29;13.26;77.19
67586;SHT31;55785;47.946;20.540;2022-11-03T09:58:00;13.24;77.18
67586;SHT31;55785;47.946;20.540;2022-11-03T10:00:26;13.23;77.15
67586;SHT31;55785;47.946;20.540;2022-11-03T10:02:52;13.34;77.07
67586;SHT31;55785;47.946;20.540;2022-11-03T10:05:27;13.28;76.27
67586;SHT31;55785;47.946;20.540;2022-11-03T10:07:58;13.19;76.53
67586;SHT31;55785;47.946;20.540;2022-11-03T10:10:25;12.96;77.57
67586;SHT31;55785;47.946;20.540;2022-11-03T10:12:50;13.02;77.72
67586;SHT31;55785;47.946;20.540;2022-11-03T10:15:18;12.93;77.72
67586;SHT31;55785;47.946;20.540;2022-11-03T10:17:44;13.09;77.18
67586;SHT31;55785;47.946;20.540;2022-11-03T10:20:11;13.17;77.16
67586;SHT31;55785;47.946;20.540;2022-11-03T10:22:38;13.19;77.36
67586;SHT31;55785;47.946;20.540;2022-11-03T10:25:39;13.41;76.91
67586;SHT31;55785;47.946;20.540;2022-11-03T10:28:12;13.47;78.34
67586;SHT31;55785;47.946;20.540;2022-11-03T10:31:01;13.74;77.55
67586;SHT31;55785;47.946;20.540;2022-11-03T10:33:30;13.81;76.51
67586;SHT31;55785;47.946;20.540;2022-11-03T10:36:00;13.77;76.30
67586;SHT31;55785;47.946;20.540;2022-11-03T10:40:55;14.15;78.19
67586;SHT31;55785;47.946;20.540;2022-11-03T10:43:20;14.12;78.25
67586;SHT31;55785;47.946;20.540;2022-11-03T10:45:46;14.20;77.23
67586;SHT31;55785;47.946;20.540;2022-11-03T10:48:11;13.78;76.70
67586;SHT31;55785;47.946;20.540;2022-11-03T10:50:41;13.89;77.63
67586;SHT31;55785;47.946;20.540;2022-11-03T10:53:16;14.16;76.80
67586;SHT31;55785;47.946;20.540;2022-11-03T10:55:44;14.39;77.72
67586;SHT31;55785;47.946;20.540;2022-11-03T10:58:09;14.41;76.85
67586;SHT31;55785;47.946;20.540;2022-11-03T11:00:35;14.16;77.66
67586;SHT31;55785;47.946;20.540;2022-11-03T11:03:00;14.32;76.37
67586;SHT31;55785;47.946;20.540;2022-11-03T11:05:25;14.39;77.45
67586;SHT31;55785;47.946;20.540;2022-11-03T11:07:52;14.34;76.32
67586;SHT31;55785;47.946;20.540;2022-11-03T11:10:28;13.99;76.66
67586;SHT31;55785;47.946;20.540;2022-11-03T11:13:24;13.55;79.23
67586;SHT31;55785;47.946;20.540;2022-11-03T11:21:01;12.82;80.23
67586;SHT31;55785;47.946;20.540;2022-11-03T11:23:45;12.78;80.18
67586;SHT31;55785;47.946;20.540;2022-11-03T11:26:32;12.72;79.93
67586;SHT31;55785;47.946;20.540;2022-11-03T11:31:33;12.88;79.51
67586;SHT31;55785;47.946;20.540;2022-11-03T11:36:33;12.75;79.31
67586;SHT31;55785;47.946;20.540;2022-11-03T11:38:59;12.86;80.03
67586;SHT31;55785;47.946;20.540;2022-11-03T11:47:24;12.59;80.45
67586;SHT31;55785;47.946;20.540;2022-11-03T11:52:32;12.61;80.47
67586;SHT31;55785;47.946;20.540;2022-11-03T11:54:59;12.55;80.05
67586;SHT31;55785;47.946;20.540;2022-11-03T11:57:32;12.52;80.17
67586;SHT31;55785;47.946;20.540;2022-11-03T11:59:58;12.61;80.76
67586;SHT31;55785;47.946;20.540;2022-11-03T12:02:27;12.73;79.97
67586;SHT31;55785;47.946;20.540;2022-11-03T12:04:57;12.75;80.50
67586;SHT31;55785;47.946;20.540;2022-11-03T12:07:34;12.81;81.04
67586;SHT31;55785;47.946;20.540;2022-11-03T12:10:18;12.76;79.81
67586;SHT31;55785;47.946;20.540;2022-11-03T12:12:44;12.62;79.88
67586;SHT31;55785;47.946;20.540;2022-11-03T12:18:38;12.72;80.22
67586;SHT31;55785;47.946;20.540;2022-11-03T12:21:11;12.73;80.74
67586;SHT31;55785;47.946;20.540;2022-11-03T12:23:42;12.68;80.26
67586;SHT31;55785;47.946;20.540;2022-11-03T12:28:49;12.82;79.80
67586;SHT31;55785;47.946;20.540;2022-11-03T12:31:17;12.62;80.71
67586;SHT31;55785;47.946;20.540;2022-11-03T12:33:43;12.52;80.91
67586;SHT31;55785;47.946;20.540;2022-11-03T12:36:08;12.54;81.46
67586;SHT31;55785;47.946;20.540;2022-11-03T12:38:34;12.64;81.01
67586;SHT31;55785;47.946;20.540;2022-11-03T12:40:59;12.46;80.40
67586;SHT31;55785;47.946;20.540;2022-11-03T12:43:25;12.52;80.99
67586;SHT31;55785;47.946;20.540;2022-11-03T12:45:50;12.34;80.97
67586;SHT31;55785;47.946;20.540;2022-11-03T12:48:15;12.44;81.13
67586;SHT31;55785;47.946;20.540;2022-11-03T12:50:40;12.30;81.04
67586;SHT31;55785;47.946;20.540;2022-11-03T12:53:06;12.18;81.29
67586;SHT31;55785;47.946;20.540;2022-11-03T12:55:33;12.23;80.83
67586;SHT31;55785;47.946;20.540;2022-11-03T12:57:58;12.18;81.69
67586;SHT31;55785;47.946;20.540;2022-11-03T13:00:23;12.17;81.82
67586;SHT31;55785;47.946;20.540;2022-11-03T13:02:49;12.21;81.81
67586;SHT31;55785;47.946;20.540;2022-11-03T13:05:14;12.28;81.77
67586;SHT31;55785;47.946;20.540;2022-11-03T13:07:42;12.24;81.01
67586;SHT31;55785;47.946;20.540;2022-11-03T13:10:08;12.31;81.74
67586;SHT31;55785;47.946;20.540;2022-11-03T13:12:34;12.27;81.98
67586;SHT31;55785;47.946;20.540;2022-11-03T13:15:05;12.17;81.88
67586;SHT31;55785;47.946;20.540;2022-11-03T13:17:30;12.14;82.09
67586;SHT31;55785;47.946;20.540;2022-11-03T13:19:56;12.17;81.63
67586;SHT31;55785;47.946;20.540;2022-11-03T13:22:21;12.24;81.32
67586;SHT31;55785;47.946;20.540;2022-11-03T13:24:46;12.08;82.63
67586;SHT31;55785;47.946;20.540;2022-11-03T13:27:11;12.06;82.45
67586;SHT31;55785;47.946;20.540;2022-11-03T13:29:37;12.21;81.99
67586;SHT31;55785;47.946;20.540;2022-11-03T13:32:03;12.20;81.98
67586;SHT31;55785;47.946;20.540;2022-11-03T13:34:29;12.25;81.91
67586;SHT31;55785;47.946;20.540;2022-11-03T13:36:54;12.34;81.94
67586;SHT31;55785;47.946;20.540;2022-11-03T13:39:19;12.46;82.17
67586;SHT31;55785;47.946;20.540;2022-11-03T13:41:45;12.38;81.33
67586;SHT31;55785;47.946;20.540;2022-11-03T13:44:10;12.52;81.43
67586;SHT31;55785;47.946;20.540;2022-11-03T13:46:35;12.51;80.84
67586;SHT31;55785;47.946;20.540;2022-11-03T13:49:01;12.52;80.80
67586;SHT31;55785;47.946;20.540;2022-11-03T13:51:26;12.41;80.61
67586;SHT31;55785;47.946;20.540;2022-11-03T13:53:51;12.52;80.42
67586;SHT31;55785;47.946;20.540;2022-11-03T13:56:17;12.35;81.81
67586;SHT31;55785;47.946;20.540;2022-11-03T13:58:42;12.23;81.91
67586;SHT31;55785;47.946;20.540;2022-11-03T14:01:07;12.23;82.22
67586;SHT31;55785;47.946;20.540;2022-11-03T14:03:33;12.20;82.50
67586;SHT31;55785;47.946;20.540;2022-11-03T14:05:58;12.06;83.29
67586;SHT31;55785;47.946;20.540;2022-11-03T14:08:23;12.01;83.37
67586;SHT31;55785;47.946;20.540;2022-11-03T14:10:49;11.93;83.90
67586;SHT31;55785;47.946;20.540;2022-11-03T14:13:14;11.85;84.26
67586;SHT31;55785;47.946;20.540;2022-11-03T14:15:39;11.85;84.66
67586;SHT31;55785;47.946;20.540;2022-11-03T14:18:05;11.82;84.67
67586;SHT31;55785;47.946;20.540;2022-11-03T14:20:30;11.73;84.75
67586;SHT31;55785;47.946;20.540;2022-11-03T14:22:55;11.67;84.82
67586;SHT31;55785;47.946;20.540;2022-11-03T14:25:20;11.69;84.63
67586;SHT31;55785;47.946;20.540;2022-11-03T14:27:46;11.62;84.60
67586;SHT31;55785;47.946;20.540;2022-11-03T14:30:12;11.67;84.75
67586;SHT31;55785;47.946;20.540;2022-11-03T14:32:37;11.58;84.32
67586;SHT31;55785;47.946;20.540;2022-11-03T14:35:03;11.58;84.21
67586;SHT31;55785;47.946;20.540;2022-11-03T14:37:28;11.52;84.23
67586;SHT31;55785;47.946;20.540;2022-11-03T14:39:54;11.63;83.83
67586;SHT31;55785;47.946;20.540;2022-11-03T14:42:19;11.54;84.07
67586;SHT31;55785;47.946;20.540;2022-11-03T14:44:45;11.66;83.66
67586;SHT31;55785;47.946;20.540;2022-11-03T14:47:13;11.54;84.08
67586;SHT31;55785;47.946;20.540;2022-11-03T14:49:39;11.52;83.59
67586;SHT31;55785;47.946;20.540;2022-11-03T14:52:05;11.63;83.64
67586;SHT31;55785;47.946;20.540;2022-11-03T14:54:31;11.72;83.34
67586;SHT31;55785;47.946;20.540;2022-11-03T14:56:56;11.83;83.10
67586;SHT31;55785;47.946;20.540;2022-11-03T14:59:22;11.94;82.73
67586;SHT31;55785;47.946;20.540;2022-11-03T15:01:48;12.01;82.26
67586;SHT31;55785;47.946;20.540;2022-11-03T15:04:14;11.97;82.18
67586;SHT31;55785;47.946;20.540;2022-11-03T15:06:40;12.08;82.08
67586;SHT31;55785;47.946;20.540;2022-11-03T15:09:06;12.13;82.03
67586;SHT31;55785;47.946;20.540;2022-11-03T15:11:31;12.06;82.15
67586;SHT31;55785;47.946;20.540;2022-11-03T15:13:56;12.13;82.11
67586;SHT31;55785;47.946;20.540;2022-11-03T15:16:22;12.13;82.05
67586;SHT31;55785;47.946;20.540;2022-11-03T15:18:48;12.12;82.50
67586;SHT31;55785;47.946;20.540;2022-11-03T15:21:14;12.14;82.21
67586;SHT31;55785;47.946;20.540;2022-11-03T15:23:39;12.13;82.32
67586;SHT31;55785;47.946;20.540;2022-11-03T15:26:04;12.08;82.45
67586;SHT31;55785;47.946;20.540;2022-11-03T15:28:30;11.97;82.70
67586;SHT31;55785;47.946;20.540;2022-11-03T15:30:55;11.93;83.36
67586;SHT31;55785;47.946;20.540;2022-11-03T15:33:20;11.96;83.48
67586;SHT31;55785;47.946;20.540;2022-11-03T15:35:46;11.91;83.52
67586;SHT31;55785;47.946;20.540;2022-11-03T15:38:11;11.80;83.04
67586;SHT31;55785;47.946;20.540;2022-11-03T15:40:36;11.77;83.35
67586;SHT31;55785;47.946;20.540;2022-11-03T15:43:02;11.83;82.86
67586;SHT31;55785;47.946;20.540;2022-11-03T15:45:27;11.89;82.40
67586;SHT31;55785;47.946;20.540;2022-11-03T15:47:52;11.91;82.40
67586;SHT31;55785;47.946;20.540;2022-11-03T15:50:18;11.86;82.51
67586;SHT31;55785;47.946;20.540;2022-11-03T15:52:43;11.90;82.62
67586;SHT31;55785;47.946;20.540;2022-11-03T15:55:09;12.01;82.70
67586;SHT31;55785;47.946;20.540;2022-11-03T15:57:34;12.00;82.81
67586;SHT31;55785;47.946;20.540;2022-11-03T16:00:00;12.00;82.92
67586;SHT31;55785;47.946;20.540;2022-11-03T16:02:25;11.98;82.85
67586;SHT31;55785;47.946;20.540;2022-11-03T16:04:51;12.03;82.96
67586;SHT31;55785;47.946;20.540;2022-11-03T16:07:16;11.98;83.10
67586;SHT31;55785;47.946;20.540;2022-11-03T16:09:41;12.00;82.58
67586;SHT31;55785;47.946;20.540;2022-11-03T16:12:07;11.91;83.14
67586;SHT31;55785;47.946;20.540;2022-11-03T16:14:32;11.90;83.12
67586;SHT31;55785;47.946;20.540;2022-11-03T16:16:58;11.90;83.30
67586;SHT31;55785;47.946;20.540;2022-11-03T16:19:23;11.69;83.88
67586;SHT31;55785;47.946;20.540;2022-11-03T16:21:48;11.76;83.70
67586;SHT31;55785;47.946;20.540;2022-11-03T16:24:14;11.75;83.61
67586;SHT31;55785;47.946;20.540;2022-11-03T16:26:39;11.72;83.51
67586;SHT31;55785;47.946;20.540;2022-11-03T16:29:04;11.79;83.52
67586;SHT31;55785;47.946;20.540;2022-11-03T16:31:30;11.77;83.29
67586;SHT31;55785;47.946;20.540;2022-11-03T16:33:55;11.76;83.24
67586;SHT31;55785;47.946;20.540;2022-11-03T16:36:20;11.70;83.08
67586;SHT31;55785;47.946;20.540;2022-11-03T16:38:46;11.80;83.07
67586;SHT31;55785;47.946;20.540;2022-11-03T16:41:11;11.75;83.48
67586;SHT31;55785;47.946;20.540;2022-11-03T16:43:36;11.79;83.45
67586;SHT31;55785;47.946;20.540;2022-11-03T16:46:02;11.79;83.28
67586;SHT31;55785;47.946;20.540;2022-11-03T16:48:28;11.77;83.01